Time;durP1;ratioP1;P1;durP2;ratioP2;P2;SDS_P1;SDS_P2;PMS_P1;PMS_P2;Temp;Humidity;BMP_temperature;BMP_pressure;BME280_temperature;BME280_humidity;BME280_pressure;Samples;Min_cycle;Max_cycle;Signal;HPM_P1;HPM_P2
2023/12/13 00:00:30;;;;;;;2.38;1.10;;;;;;;;;;10571294;28;20473;-73
2023/12/13 00:05:33;;;;;;;3.05;1.00;;;;;;;;;;10570606;28;20035;-73
2023/12/13 00:10:36;;;;;;;1.67;0.98;;;;;;;;;;10570084;28;20389;-73
2023/12/13 00:15:41;;;;;;;2.75;1.70;;;;;;;;;;10570108;28;20488;-73
2023/12/13 00:20:44;;;;;;;3.78;1.60;;;;;;;;;;10569923;28;20114;-73
2023/12/13 00:25:47;;;;;;;3.38;1.20;;;;;;;;;;10572730;28;20400;-73
2023/12/13 00:30:52;;;;;;;1.73;0.70;;;;;;;;;;10576960;28;20066;-73
2023/12/13 00:35:55;;;;;;;2.85;0.90;;;;;;;;;;10571223;28;20064;-73
2023/12/13 00:40:58;;;;;;;0.98;0.75;;;;;;;;;;10579293;28;20040;-73
2023/12/13 00:46:05;;;;;;;1.65;0.60;;;;;;;;;;10584810;27;20051;-73
2023/12/13 00:51:16;;;;;;;1.45;0.98;;;;;;;;;;10578740;28;20038;-73
2023/12/13 00:56:19;;;;;;;0.40;0.40;;;;;;;;;;10576225;28;20047;-73
2023/12/13 01:01:24;;;;;;;0.57;0.40;;;;;;;;;;10579191;28;20035;-73
2023/12/13 01:06:27;;;;;;;1.65;0.50;;;;;;;;;;10578322;28;20039;-73
2023/12/13 01:11:31;;;;;;;1.42;0.38;;;;;;;;;;10579308;28;20603;-74
2023/12/13 01:16:36;;;;;;;1.00;0.50;;;;;;;;;;10578621;28;20096;-73
2023/12/13 01:21:39;;;;;;;0.35;0.35;;;;;;;;;;10577228;28;20528;-73
2023/12/13 01:26:42;;;;;;;0.30;0.30;;;;;;;;;;10582774;27;20271;-74
2023/12/13 01:31:47;;;;;;;0.82;0.50;;;;;;;;;;10574058;28;20468;-74
2023/12/13 01:36:50;;;;;;;0.38;0.30;;;;;;;;;;10572213;28;20055;-74
2023/12/13 01:41:53;;;;;;;0.77;0.50;;;;;;;;;;10578773;28;20050;-74
2023/12/13 01:46:59;;;;;;;1.83;0.70;;;;;;;;;;10577468;28;20035;-73
2023/12/13 01:52:02;;;;;;;1.95;0.50;;;;;;;;;;10577247;27;20040;-74
2023/12/13 01:57:06;;;;;;;0.63;0.47;;;;;;;;;;10577334;28;20062;-73
2023/12/13 02:02:11;;;;;;;2.42;0.73;;;;;;;;;;10577291;28;20040;-73
2023/12/13 02:07:16;;;;;;;1.20;0.80;;;;;;;;;;10575040;28;20043;-73
2023/12/13 02:12:19;;;;;;;0.95;0.75;;;;;;;;;;10579914;27;20032;-73
2023/12/13 02:17:24;;;;;;;1.50;0.55;;;;;;;;;;10576213;27;20485;-73
2023/12/13 02:22:28;;;;;;;1.60;0.60;;;;;;;;;;10577645;27;20051;-73
2023/12/13 02:27:32;;;;;;;2.47;0.75;;;;;;;;;;10583162;27;20035;-73
2023/12/13 02:32:36;;;;;;;0.73;0.70;;;;;;;;;;10575824;27;20031;-73
2023/12/13 02:37:45;;;;;;;1.20;0.55;;;;;;;;;;10570648;27;20570;-73
2023/12/13 02:42:48;;;;;;;1.38;0.80;;;;;;;;;;10576589;27;20039;-74
2023/12/13 02:47:52;;;;;;;2.95;0.88;;;;;;;;;;10574913;28;20524;-73
2023/12/13 02:52:57;;;;;;;2.22;0.77;;;;;;;;;;10572690;28;20115;-73
2023/12/13 02:58:01;;;;;;;1.17;0.65;;;;;;;;;;10574333;28;20040;-73
2023/12/13 03:03:04;;;;;;;1.95;0.73;;;;;;;;;;10573753;28;20040;-73
2023/12/13 03:08:09;;;;;;;1.85;0.75;;;;;;;;;;10571897;28;20048;-73
2023/12/13 03:13:12;;;;;;;1.88;0.80;;;;;;;;;;10572553;28;20039;-73
2023/12/13 03:18:15;;;;;;;3.00;0.73;;;;;;;;;;10573181;28;20043;-73
2023/12/13 03:23:20;;;;;;;1.10;0.50;;;;;;;;;;10572802;28;20088;-73
2023/12/13 03:28:23;;;;;;;1.85;0.75;;;;;;;;;;10573339;28;20039;-73
2023/12/13 03:33:27;;;;;;;0.88;0.63;;;;;;;;;;10570081;28;20036;-73
2023/12/13 03:38:31;;;;;;;2.00;0.60;;;;;;;;;;10572704;27;20043;-73
2023/12/13 03:43:34;;;;;;;2.00;0.63;;;;;;;;;;10573231;28;20043;-73
2023/12/13 03:48:38;;;;;;;3.85;0.93;;;;;;;;;;10572409;28;20059;-73
2023/12/13 03:53:42;;;;;;;1.92;0.82;;;;;;;;;;10571446;28;20039;-73
2023/12/13 03:58:46;;;;;;;2.13;0.70;;;;;;;;;;10569044;28;20392;-73
2023/12/13 04:03:49;;;;;;;1.77;0.98;;;;;;;;;;10573773;28;20127;-73
2023/12/13 04:08:54;;;;;;;1.95;0.50;;;;;;;;;;10571794;28;20123;-73
2023/12/13 04:13:57;;;;;;;1.80;0.82;;;;;;;;;;10572209;28;20042;-73
2023/12/13 04:19:00;;;;;;;2.80;0.80;;;;;;;;;;10571356;28;20042;-73
2023/12/13 04:24:05;;;;;;;1.55;0.80;;;;;;;;;;10568026;28;20130;-75
2023/12/13 04:29:08;;;;;;;1.88;0.70;;;;;;;;;;10571553;28;20514;-73
2023/12/13 04:34:11;;;;;;;2.17;0.70;;;;;;;;;;10570293;28;20515;-73
2023/12/13 04:39:16;;;;;;;1.83;0.80;;;;;;;;;;10571583;28;20052;-73
2023/12/13 04:44:19;;;;;;;1.73;0.75;;;;;;;;;;10572777;28;20616;-73
2023/12/13 04:49:23;;;;;;;1.60;0.70;;;;;;;;;;10569995;28;20050;-73
2023/12/13 04:54:27;;;;;;;3.13;0.90;;;;;;;;;;10569708;28;20047;-73
2023/12/13 04:59:30;;;;;;;0.77;0.57;;;;;;;;;;10569969;28;20500;-74
2023/12/13 05:04:34;;;;;;;2.85;1.10;;;;;;;;;;10570856;28;20098;-73
2023/12/13 05:09:38;;;;;;;2.30;1.00;;;;;;;;;;10569736;28;20127;-73
2023/12/13 05:14:42;;;;;;;1.90;0.93;;;;;;;;;;10570473;28;20070;-73
2023/12/13 05:19:46;;;;;;;0.90;0.60;;;;;;;;;;10570314;28;20051;-73
2023/12/13 05:24:50;;;;;;;2.45;0.77;;;;;;;;;;10574995;27;20048;-73
2023/12/13 05:29:54;;;;;;;1.95;0.80;;;;;;;;;;10572602;28;20035;-73
2023/12/13 05:34:57;;;;;;;2.58;0.80;;;;;;;;;;10577666;28;20401;-73
2023/12/13 05:40:03;;;;;;;1.42;0.85;;;;;;;;;;10576500;28;20074;-73
2023/12/13 05:45:07;;;;;;;2.88;1.08;;;;;;;;;;10578768;27;20090;-73
2023/12/13 05:50:10;;;;;;;2.60;1.20;;;;;;;;;;10575963;28;20050;-73
2023/12/13 05:55:15;;;;;;;1.45;0.82;;;;;;;;;;10588846;22;20460;-73
2023/12/13 06:00:19;;;;;;;1.85;0.85;;;;;;;;;;10533258;28;20127;-73
2023/12/13 06:05:22;;;;;;;1.48;0.70;;;;;;;;;;10533739;28;20535;-73
2023/12/13 06:10:29;;;;;;;2.20;0.80;;;;;;;;;;10529773;28;20063;-74
2023/12/13 06:15:33;;;;;;;2.25;0.80;;;;;;;;;;10521866;28;20117;-74
2023/12/13 06:20:36;;;;;;;2.85;1.60;;;;;;;;;;10520447;28;20032;-73
2023/12/13 06:25:41;;;;;;;3.05;1.23;;;;;;;;;;10526780;28;20074;-74
2023/12/13 06:30:44;;;;;;;3.35;1.00;;;;;;;;;;10530959;28;20123;-74
2023/12/13 06:35:48;;;;;;;4.38;1.40;;;;;;;;;;10523523;28;20039;-74
2023/12/13 06:40:52;;;;;;;2.05;1.00;;;;;;;;;;10531997;28;20464;-74
2023/12/13 06:45:56;;;;;;;1.05;0.55;;;;;;;;;;10529426;28;20066;-74
2023/12/13 06:50:59;;;;;;;3.92;1.00;;;;;;;;;;10532067;28;20548;-74
2023/12/13 06:56:04;;;;;;;3.17;0.95;;;;;;;;;;10530517;28;20550;-74
2023/12/13 07:01:08;;;;;;;2.00;0.80;;;;;;;;;;10529523;28;20047;-74
2023/12/13 07:06:16;;;;;;;1.23;0.70;;;;;;;;;;10526332;28;20504;-74
2023/12/13 07:11:21;;;;;;;1.38;1.13;;;;;;;;;;10530326;28;20490;-74
2023/12/13 07:16:25;;;;;;;1.85;0.80;;;;;;;;;;10530791;28;20090;-74
2023/12/13 07:21:29;;;;;;;1.52;0.70;;;;;;;;;;10528851;28;20036;-74
2023/12/13 07:26:33;;;;;;;2.85;1.63;;;;;;;;;;10529865;28;20044;-74
2023/12/13 07:31:39;;;;;;;1.90;1.48;;;;;;;;;;10529995;28;20040;-74
2023/12/13 07:36:48;;;;;;;3.85;1.58;;;;;;;;;;10527130;28;20040;-74
2023/12/13 07:41:52;;;;;;;3.45;1.20;;;;;;;;;;10529086;28;20040;-74
2023/12/13 07:46:56;;;;;;;3.13;1.23;;;;;;;;;;10525527;28;20044;-74
2023/12/13 07:51:59;;;;;;;3.13;1.20;;;;;;;;;;10523007;28;20453;-74
2023/12/13 07:57:04;;;;;;;3.05;1.58;;;;;;;;;;10525366;28;20535;-74
2023/12/13 08:02:07;;;;;;;1.88;1.00;;;;;;;;;;10529746;28;20047;-74
2023/12/13 08:07:10;;;;;;;2.33;1.02;;;;;;;;;;10524693;28;20540;-74
2023/12/13 08:12:15;;;;;;;2.92;1.23;;;;;;;;;;10524295;28;20043;-75
2023/12/13 08:17:18;;;;;;;3.08;1.23;;;;;;;;;;10517944;28;20044;-74
2023/12/13 08:22:22;;;;;;;2.00;0.88;;;;;;;;;;10523477;28;20068;-74
2023/12/13 08:27:27;;;;;;;2.72;1.20;;;;;;;;;;10527685;28;20121;-74
2023/12/13 08:32:30;;;;;;;2.50;1.10;;;;;;;;;;10525008;28;22098;-74
2023/12/13 08:37:33;;;;;;;2.13;0.80;;;;;;;;;;10527583;28;20614;-74
2023/12/13 08:42:38;;;;;;;1.52;0.95;;;;;;;;;;10529397;28;20840;-74
2023/12/13 08:47:41;;;;;;;0.88;0.60;;;;;;;;;;10528709;28;20111;-74
2023/12/13 08:52:45;;;;;;;1.45;0.70;;;;;;;;;;10528566;28;20032;-74
2023/12/13 08:57:50;;;;;;;1.63;0.73;;;;;;;;;;10526557;28;20159;-74
2023/12/13 09:02:53;;;;;;;1.55;0.85;;;;;;;;;;10534410;28;20131;-74
2023/12/13 09:07:56;;;;;;;1.60;0.80;;;;;;;;;;10535070;28;20036;-75
2023/12/13 09:13:02;;;;;;;0.80;0.70;;;;;;;;;;10533736;28;20044;-74
2023/12/13 09:18:05;;;;;;;1.97;0.87;;;;;;;;;;10547885;28;20048;-74
2023/12/13 09:23:10;;;;;;;1.48;0.75;;;;;;;;;;10547776;28;20052;-74
2023/12/13 09:28:15;;;;;;;1.42;0.70;;;;;;;;;;10547790;28;20147;-74
2023/12/13 09:33:18;;;;;;;2.08;0.68;;;;;;;;;;10543097;28;20063;-74
2023/12/13 09:38:22;;;;;;;1.55;0.52;;;;;;;;;;10532580;28;20493;-74
2023/12/13 09:43:26;;;;;;;0.75;0.50;;;;;;;;;;10542306;28;20526;-74
2023/12/13 09:48:31;;;;;;;0.75;0.70;;;;;;;;;;10545847;28;20036;-74
2023/12/13 09:53:35;;;;;;;0.85;0.60;;;;;;;;;;10548229;28;20136;-74
2023/12/13 09:58:40;;;;;;;0.70;0.60;;;;;;;;;;10562317;27;20052;-74
2023/12/13 10:03:44;;;;;;;1.15;0.60;;;;;;;;;;10540252;28;20120;-74
2023/12/13 10:08:54;;;;;;;1.38;0.65;;;;;;;;;;10543616;28;20046;-74
2023/12/13 10:13:59;;;;;;;1.92;0.60;;;;;;;;;;10546695;28;20028;-74
2023/12/13 10:19:04;;;;;;;1.45;0.70;;;;;;;;;;10545506;28;20049;-74
2023/12/13 10:24:08;;;;;;;1.17;0.80;;;;;;;;;;10538847;28;20055;-74
2023/12/13 10:29:13;;;;;;;0.70;0.57;;;;;;;;;;10527929;28;20062;-74
2023/12/13 10:34:16;;;;;;;1.73;0.60;;;;;;;;;;10547798;28;20235;-74
2023/12/13 10:39:23;;;;;;;3.70;0.95;;;;;;;;;;10537129;28;20042;-74
2023/12/13 10:44:32;;;;;;;3.83;1.23;;;;;;;;;;10545718;28;20036;-74
2023/12/13 10:49:37;;;;;;;4.03;0.80;;;;;;;;;;10541518;28;20039;-74
2023/12/13 10:54:41;;;;;;;2.25;0.98;;;;;;;;;;10542857;28;20093;-74
2023/12/13 10:59:46;;;;;;;2.25;0.95;;;;;;;;;;10543491;28;20052;-74
2023/12/13 11:04:50;;;;;;;2.55;0.93;;;;;;;;;;10527983;28;20052;-74
2023/12/13 11:09:55;;;;;;;3.65;0.93;;;;;;;;;;10522852;28;20040;-74
2023/12/13 11:15:03;;;;;;;2.72;0.93;;;;;;;;;;10525674;28;20042;-73
2023/12/13 11:20:09;;;;;;;6.70;1.40;;;;;;;;;;10525953;28;20051;-74
2023/12/13 11:25:13;;;;;;;4.43;1.00;;;;;;;;;;10529227;28;20064;-74
2023/12/13 11:30:19;;;;;;;6.43;1.33;;;;;;;;;;10528525;28;20080;-74
2023/12/13 11:35:23;;;;;;;2.10;1.00;;;;;;;;;;10525785;28;20127;-74
2023/12/13 11:40:28;;;;;;;5.60;1.67;;;;;;;;;;10528651;28;20519;-74
2023/12/13 11:45:33;;;;;;;3.22;1.10;;;;;;;;;;10530703;28;20127;-74
2023/12/13 11:50:36;;;;;;;2.80;1.00;;;;;;;;;;10530660;28;20050;-74
2023/12/13 11:55:39;;;;;;;2.95;1.20;;;;;;;;;;10570503;22;20143;-73
2023/12/13 12:00:44;;;;;;;3.72;0.85;;;;;;;;;;10571278;28;20043;-73
2023/12/13 12:05:49;;;;;;;3.05;1.10;;;;;;;;;;10570878;27;20031;-74
2023/12/13 12:10:52;;;;;;;5.72;1.75;;;;;;;;;;10570752;28;20077;-73
2023/12/13 12:15:57;;;;;;;3.55;1.10;;;;;;;;;;10569908;27;20039;-73
2023/12/13 12:21:01;;;;;;;8.35;1.33;;;;;;;;;;10570785;27;20075;-74
2023/12/13 12:26:11;;;;;;;2.80;0.90;;;;;;;;;;10571946;27;20044;-73
2023/12/13 12:31:16;;;;;;;3.47;0.90;;;;;;;;;;10557138;28;20100;-73
2023/12/13 12:36:20;;;;;;;3.03;0.70;;;;;;;;;;10568041;28;20039;-73
2023/12/13 12:41:24;;;;;;;1.50;0.73;;;;;;;;;;10552543;28;20138;-74
2023/12/13 12:46:29;;;;;;;2.70;1.08;;;;;;;;;;10574117;28;20051;-73
2023/12/13 12:51:32;;;;;;;2.15;0.95;;;;;;;;;;10573187;28;20459;-73
2023/12/13 12:56:36;;;;;;;4.32;1.15;;;;;;;;;;10571255;28;20040;-74
2023/12/13 13:01:42;;;;;;;5.60;1.50;;;;;;;;;;10570147;28;20043;-73
2023/12/13 13:06:46;;;;;;;3.53;0.90;;;;;;;;;;10570367;28;20036;-73
2023/12/13 13:11:50;;;;;;;4.15;1.10;;;;;;;;;;10567015;28;20054;-74
2023/12/13 13:16:58;;;;;;;1.42;0.90;;;;;;;;;;10552646;28;20036;-73
2023/12/13 13:22:02;;;;;;;2.78;1.10;;;;;;;;;;10550860;28;20047;-73
2023/12/13 13:27:07;;;;;;;3.15;1.40;;;;;;;;;;10572551;28;20115;-73
2023/12/13 13:32:14;;;;;;;4.97;1.23;;;;;;;;;;10553647;27;20047;-73
2023/12/13 13:37:17;;;;;;;6.45;1.20;;;;;;;;;;10569230;28;20065;-73
2023/12/13 13:42:21;;;;;;;1.73;0.88;;;;;;;;;;10566890;28;20561;-73
2023/12/13 13:47:26;;;;;;;3.72;0.98;;;;;;;;;;10572534;28;20465;-74
2023/12/13 13:52:29;;;;;;;3.95;1.05;;;;;;;;;;10576838;28;20043;-73
2023/12/13 13:57:34;;;;;;;2.17;1.00;;;;;;;;;;10575349;27;20522;-73
2023/12/13 14:02:39;;;;;;;2.83;1.43;;;;;;;;;;10578292;27;20049;-74
2023/12/13 14:07:42;;;;;;;4.28;1.77;;;;;;;;;;10577955;27;20039;-73
2023/12/13 14:12:46;;;;;;;1.67;1.10;;;;;;;;;;10576040;27;20127;-74
2023/12/13 14:17:51;;;;;;;3.05;1.20;;;;;;;;;;10583925;27;20039;-73
2023/12/13 14:22:54;;;;;;;1.75;1.13;;;;;;;;;;10580940;27;20039;-73
2023/12/13 14:27:57;;;;;;;2.17;1.00;;;;;;;;;;10584322;27;20103;-73
2023/12/13 14:33:02;;;;;;;1.02;0.90;;;;;;;;;;10583385;27;20047;-73
2023/12/13 14:38:05;;;;;;;1.15;0.90;;;;;;;;;;10577974;27;20084;-73
2023/12/13 14:43:09;;;;;;;1.88;0.82;;;;;;;;;;10580998;27;20051;-73
2023/12/13 14:48:13;;;;;;;3.28;0.98;;;;;;;;;;10576438;27;20051;-73
2023/12/13 14:53:17;;;;;;;2.28;1.00;;;;;;;;;;10576151;27;20079;-73
2023/12/13 14:58:21;;;;;;;1.90;0.70;;;;;;;;;;10581026;27;20113;-73
2023/12/13 15:03:25;;;;;;;1.58;0.63;;;;;;;;;;10582974;27;20117;-73
2023/12/13 15:08:29;;;;;;;2.17;0.80;;;;;;;;;;10587669;27;20051;-73
2023/12/13 15:13:32;;;;;;;3.45;0.70;;;;;;;;;;10563296;28;20047;-73
2023/12/13 15:18:38;;;;;;;1.75;0.88;;;;;;;;;;10575803;27;20104;-74
2023/12/13 15:23:42;;;;;;;4.95;2.08;;;;;;;;;;10577998;27;20055;-73
2023/12/13 15:28:45;;;;;;;4.35;2.35;;;;;;;;;;10577650;27;20114;-73
2023/12/13 15:33:50;;;;;;;4.50;2.42;;;;;;;;;;10575813;27;20035;-73
2023/12/13 15:38:53;;;;;;;5.20;2.90;;;;;;;;;;10580198;27;20031;-73
2023/12/13 15:43:56;;;;;;;4.20;2.53;;;;;;;;;;10577042;27;20549;-73
2023/12/13 15:49:01;;;;;;;4.07;2.75;;;;;;;;;;10575276;27;20044;-73
2023/12/13 15:54:04;;;;;;;5.07;2.70;;;;;;;;;;10575816;27;20114;-73
2023/12/13 15:59:08;;;;;;;4.32;3.00;;;;;;;;;;10559456;27;20032;-74
2023/12/13 16:04:12;;;;;;;5.55;3.28;;;;;;;;;;10575688;27;20055;-73
2023/12/13 16:09:17;;;;;;;4.30;2.83;;;;;;;;;;10551781;27;20050;-73
2023/12/13 16:14:21;;;;;;;5.07;2.97;;;;;;;;;;10573062;27;20582;-73
2023/12/13 16:19:25;;;;;;;4.28;2.55;;;;;;;;;;10560573;27;20050;-73
2023/12/13 16:24:28;;;;;;;3.25;2.20;;;;;;;;;;10570347;27;20388;-73
2023/12/13 16:29:32;;;;;;;3.67;2.00;;;;;;;;;;10560432;27;20380;-73
2023/12/13 16:34:36;;;;;;;5.13;2.85;;;;;;;;;;10555993;28;20133;-73
2023/12/13 16:39:40;;;;;;;7.82;3.50;;;;;;;;;;10570511;28;20443;-74
2023/12/13 16:44:43;;;;;;;6.75;3.72;;;;;;;;;;10561448;28;20934;-74
2023/12/13 16:49:47;;;;;;;8.05;3.83;;;;;;;;;;10567276;28;20048;-73
2023/12/13 16:54:51;;;;;;;10.70;5.65;;;;;;;;;;10576438;27;20162;-74
2023/12/13 16:59:55;;;;;;;24.52;11.43;;;;;;;;;;10562083;28;20083;-74
2023/12/13 17:05:00;;;;;;;21.95;9.57;;;;;;;;;;10572639;28;20403;-73
2023/12/13 17:10:03;;;;;;;17.42;8.27;;;;;;;;;;10553751;28;20068;-73
2023/12/13 17:15:08;;;;;;;14.80;7.65;;;;;;;;;;10563763;28;20167;-74
2023/12/13 17:20:14;;;;;;;13.30;6.38;;;;;;;;;;10556889;27;20640;-73
2023/12/13 17:25:17;;;;;;;;;;;;;;;;;;10580268;27;20040;-73
2023/12/13 17:30:20;;;;;;;9.35;4.95;;;;;;;;;;10573932;27;19923;-73
2023/12/13 17:35:25;;;;;;;9.57;5.20;;;;;;;;;;10576417;27;20131;-73
2023/12/13 17:40:29;;;;;;;10.70;5.00;;;;;;;;;;10580602;27;20039;-73
2023/12/13 17:45:32;;;;;;;9.05;4.60;;;;;;;;;;10578694;27;20560;-73
2023/12/13 17:50:37;;;;;;;8.38;4.32;;;;;;;;;;10576119;27;20507;-73
2023/12/13 17:55:41;;;;;;;6.65;3.90;;;;;;;;;;10586437;22;20494;-74
2023/12/13 18:00:46;;;;;;;8.30;4.43;;;;;;;;;;10563368;28;20089;-74
2023/12/13 18:05:51;;;;;;;8.27;4.47;;;;;;;;;;10555842;28;20043;-73
2023/12/13 18:10:54;;;;;;;8.68;3.95;;;;;;;;;;10572356;28;20054;-73
2023/12/13 18:15:58;;;;;;;8.13;4.97;;;;;;;;;;10562952;28;20054;-74
2023/12/13 18:21:03;;;;;;;10.38;5.57;;;;;;;;;;10570777;28;20039;-74
2023/12/13 18:26:06;;;;;;;10.40;5.72;;;;;;;;;;10568285;28;20040;-74
2023/12/13 18:31:09;;;;;;;9.10;5.47;;;;;;;;;;10567814;28;20131;-73
2023/12/13 18:36:14;;;;;;;7.70;4.97;;;;;;;;;;10569674;28;20048;-73
2023/12/13 18:41:17;;;;;;;7.88;4.72;;;;;;;;;;10563291;28;20559;-74
2023/12/13 18:46:20;;;;;;;5.75;3.58;;;;;;;;;;10560998;28;20043;-74
2023/12/13 18:51:25;;;;;;;7.25;4.15;;;;;;;;;;10570787;28;20520;-74
2023/12/13 18:56:28;;;;;;;9.68;4.45;;;;;;;;;;10561931;28;20507;-73
2023/12/13 19:01:32;;;;;;;6.07;3.35;;;;;;;;;;10571822;28;20043;-73
2023/12/13 19:06:36;;;;;;;6.82;3.60;;;;;;;;;;10567245;28;20039;-74
2023/12/13 19:11:40;;;;;;;5.75;2.95;;;;;;;;;;10562511;28;20044;-74
2023/12/13 19:16:44;;;;;;;5.25;2.40;;;;;;;;;;10570145;28;20038;-74
2023/12/13 19:21:49;;;;;;;5.45;2.80;;;;;;;;;;10567827;28;20044;-74
2023/12/13 19:26:52;;;;;;;4.90;2.90;;;;;;;;;;10555628;28;20104;-74
2023/12/13 19:31:55;;;;;;;4.05;2.38;;;;;;;;;;10551519;28;20118;-74
2023/12/13 19:37:00;;;;;;;6.18;3.05;;;;;;;;;;10560294;28;20570;-73
2023/12/13 19:42:03;;;;;;;7.10;3.42;;;;;;;;;;10557174;28;20130;-74
2023/12/13 19:47:07;;;;;;;9.82;4.90;;;;;;;;;;10558910;28;20512;-73
2023/12/13 19:52:12;;;;;;;8.80;4.68;;;;;;;;;;10560204;28;20031;-74
2023/12/13 19:57:15;;;;;;;13.48;7.07;;;;;;;;;;10565622;28;20127;-74
2023/12/13 20:02:19;;;;;;;13.55;7.05;;;;;;;;;;10560029;28;20104;-74
2023/12/13 20:07:23;;;;;;;12.20;5.75;;;;;;;;;;10563913;28;20134;-74
2023/12/13 20:12:28;;;;;;;8.60;5.07;;;;;;;;;;10567547;28;20048;-73
2023/12/13 20:17:31;;;;;;;11.10;4.82;;;;;;;;;;10572408;28;20111;-74
2023/12/13 20:22:36;;;;;;;8.90;5.38;;;;;;;;;;10564970;28;20454;-73
2023/12/13 20:27:40;;;;;;;9.73;5.47;;;;;;;;;;10564252;28;20047;-74
2023/12/13 20:32:43;;;;;;;8.52;5.03;;;;;;;;;;10560838;28;20050;-74
2023/12/13 20:37:47;;;;;;;8.15;4.35;;;;;;;;;;10560369;28;20024;-73
2023/12/13 20:42:51;;;;;;;6.45;4.38;;;;;;;;;;10552987;28;20512;-73
2023/12/13 20:47:54;;;;;;;6.72;3.90;;;;;;;;;;10546387;28;20115;-73
2023/12/13 20:52:59;;;;;;;9.18;5.20;;;;;;;;;;10555540;28;20496;-73
2023/12/13 20:58:02;;;;;;;12.57;5.80;;;;;;;;;;10564641;28;20114;-73
2023/12/13 21:03:06;;;;;;;10.20;4.82;;;;;;;;;;10560206;28;20123;-73
2023/12/13 21:08:10;;;;;;;7.95;4.75;;;;;;;;;;10560502;28;20104;-74
2023/12/13 21:13:14;;;;;;;8.73;4.47;;;;;;;;;;10569815;27;20148;-73
2023/12/13 21:18:17;;;;;;;7.30;4.15;;;;;;;;;;10562634;28;20028;-73
2023/12/13 21:23:24;;;;;;;7.13;3.50;;;;;;;;;;10565209;28;20123;-73
2023/12/13 21:28:27;;;;;;;10.15;3.85;;;;;;;;;;10555382;28;20100;-73
2023/12/13 21:33:30;;;;;;;5.53;3.30;;;;;;;;;;10569492;28;20147;-73
2023/12/13 21:38:35;;;;;;;4.82;3.85;;;;;;;;;;10555384;28;20047;-73
2023/12/13 21:43:41;;;;;;;6.55;4.18;;;;;;;;;;10557409;28;20052;-73
2023/12/13 21:48:44;;;;;;;6.43;3.90;;;;;;;;;;10569296;27;20126;-73
2023/12/13 21:53:49;;;;;;;6.78;4.40;;;;;;;;;;10563644;27;20446;-73
2023/12/13 21:58:52;;;;;;;7.28;5.43;;;;;;;;;;10563073;27;20039;-74
2023/12/13 22:03:59;;;;;;;6.35;3.83;;;;;;;;;;10567438;27;20048;-73
2023/12/13 22:09:04;;;;;;;9.05;4.30;;;;;;;;;;10569753;27;20039;-74
2023/12/13 22:14:07;;;;;;;7.82;5.07;;;;;;;;;;10563421;27;20064;-73
2023/12/13 22:19:21;;;;;;;12.38;5.78;;;;;;;;;;10571848;27;20469;-73
2023/12/13 22:24:25;;;;;;;12.18;6.13;;;;;;;;;;10563845;27;20073;-73
2023/12/13 22:29:29;;;;;;;10.85;5.95;;;;;;;;;;10557067;27;20416;-73
2023/12/13 22:34:32;;;;;;;10.73;6.28;;;;;;;;;;10563909;27;20039;-73
2023/12/13 22:39:37;;;;;;;14.35;7.45;;;;;;;;;;10559378;27;20035;-73
2023/12/13 22:44:40;;;;;;;14.50;7.28;;;;;;;;;;10568315;27;20061;-73
2023/12/13 22:49:43;;;;;;;16.70;7.47;;;;;;;;;;10560108;27;20397;-73
2023/12/13 22:54:48;;;;;;;13.45;6.78;;;;;;;;;;10559761;28;20051;-73
2023/12/13 22:59:52;;;;;;;11.90;5.80;;;;;;;;;;10561847;27;20051;-73
2023/12/13 23:04:55;;;;;;;10.35;4.97;;;;;;;;;;10559811;27;20046;-73
2023/12/13 23:10:00;;;;;;;9.35;5.20;;;;;;;;;;10561957;27;20047;-73
2023/12/13 23:15:03;;;;;;;11.77;4.50;;;;;;;;;;10562191;27;20450;-73
2023/12/13 23:20:08;;;;;;;8.48;4.47;;;;;;;;;;10559505;27;20838;-73
2023/12/13 23:25:13;;;;;;;6.72;3.85;;;;;;;;;;10560822;28;20087;-73
2023/12/13 23:30:16;;;;;;;7.47;4.18;;;;;;;;;;10543658;28;20059;-73
2023/12/13 23:35:19;;;;;;;8.38;4.13;;;;;;;;;;10554249;27;20097;-73
2023/12/13 23:40:24;;;;;;;10.00;4.38;;;;;;;;;;10564934;27;20069;-73
2023/12/13 23:45:27;;;;;;;9.18;4.28;;;;;;;;;;10561268;27;20050;-73
2023/12/13 23:50:31;;;;;;;8.30;3.97;;;;;;;;;;10560541;28;20111;-73
2023/12/13 23:55:36;;;;;;;10.45;4.32;;;;;;;;;;10595119;22;20054;-73
